Time;durP1;ratioP1;P1;durP2;ratioP2;P2;SDS_P1;SDS_P2;PMS_P1;PMS_P2;Temp;Humidity;BMP_temperature;BMP_pressure;BME280_temperature;BME280_humidity;BME280_pressure;Samples;Min_cycle;Max_cycle;Signal;HPM_P1;HPM_P2
2022/03/13 00:01:02;;;;;;;18.38;10.32;;;;;;;10.37;52.80;101441.91;5113194;28;20048;-66
2022/03/13 00:03:34;;;;;;;16.60;10.60;;;;;;;10.34;53.52;101444.59;5107432;28;20059;-66
2022/03/13 00:06:02;;;;;;;17.15;10.45;;;;;;;10.27;53.71;101449.16;5113721;27;20038;-66
2022/03/13 00:08:32;;;;;;;18.55;10.07;;;;;;;10.24;53.77;101450.06;5111645;27;20043;-66
2022/03/13 00:11:15;;;;;;;15.00;9.40;;;;;;;10.21;53.72;101443.97;5113577;27;20044;-66
2022/03/13 00:13:53;;;;;;;18.52;10.75;;;;;;;10.18;53.84;101438.75;5093332;28;20051;-66
2022/03/13 00:16:21;;;;;;;18.00;10.40;;;;;;;10.15;53.91;101444.97;5104859;28;20193;-66
2022/03/13 00:18:49;;;;;;;15.85;10.55;;;;;;;10.13;53.92;101438.84;5112706;28;20047;-66
2022/03/13 00:21:20;;;;;;;16.95;10.85;;;;;;;10.12;54.01;101442.41;5113775;28;20050;-69
2022/03/13 00:23:48;;;;;;;15.98;10.88;;;;;;;10.10;53.67;101438.91;5112148;28;20475;-68
2022/03/13 00:26:17;;;;;;;15.95;10.23;;;;;;;10.08;54.00;101438.94;5113071;28;20076;-68
2022/03/13 00:28:46;;;;;;;18.38;10.80;;;;;;;10.05;53.82;101433.75;5112804;28;20032;-69
2022/03/13 00:31:13;;;;;;;15.48;10.18;;;;;;;10.03;53.84;101430.25;5113832;28;20149;-69
2022/03/13 00:33:41;;;;;;;18.25;10.23;;;;;;;10.02;53.54;101439.06;5111664;27;20044;-69
2022/03/13 00:36:08;;;;;;;16.48;10.38;;;;;;;10.02;53.53;101427.66;5113452;28;20044;-68
2022/03/13 00:38:35;;;;;;;18.13;10.63;;;;;;;10.01;53.53;101425.94;5100181;28;20044;-68
2022/03/13 00:41:05;;;;;;;18.00;10.50;;;;;;;10.01;53.63;101431.19;5112005;27;20040;-69
2022/03/13 00:43:32;;;;;;;15.85;10.07;;;;;;;10.00;53.74;101425.03;5112357;28;20492;-69
2022/03/13 00:46:00;;;;;;;16.17;9.85;;;;;;;9.99;53.76;101415.41;5112069;28;20417;-68
2022/03/13 00:48:28;;;;;;;16.75;10.48;;;;;;;9.98;53.81;101418.94;5104510;28;20097;-68
2022/03/13 00:50:59;;;;;;;13.90;9.45;;;;;;;9.98;53.94;101421.56;5112806;28;20063;-66
2022/03/13 00:53:26;;;;;;;15.27;9.38;;;;;;;9.99;53.88;101419.81;5110628;27;20111;-66
2022/03/13 00:55:53;;;;;;;17.15;10.20;;;;;;;9.98;53.97;101416.28;5108442;28;20043;-66
2022/03/13 00:58:20;;;;;;;16.92;10.13;;;;;;;9.98;54.14;101404.91;5125862;27;20047;-67
2022/03/13 01:00:48;;;;;;;16.75;9.93;;;;;;;9.95;54.02;101396.16;5112906;28;20050;-67
2022/03/13 01:03:49;;;;;;;17.35;11.05;;;;;;;9.93;54.19;101387.41;5111490;28;20036;-67
2022/03/13 01:06:18;;;;;;;15.05;9.52;;;;;;;9.91;54.02;101380.44;5112811;27;20047;-66
2022/03/13 01:08:49;;;;;;;16.38;10.30;;;;;;;9.89;53.87;101376.97;5112368;27;20044;-66
2022/03/13 01:11:20;;;;;;;16.38;10.85;;;;;;;9.86;53.85;101377.88;5112565;28;20106;-68
2022/03/13 01:13:48;;;;;;;17.02;11.07;;;;;;;9.85;53.99;101381.41;5111563;27;20049;-66
2022/03/13 01:16:20;;;;;;;19.05;10.90;;;;;;;9.83;53.93;101382.34;5111248;28;20102;-66
2022/03/13 01:18:55;;;;;;;17.50;9.90;;;;;;;9.82;54.18;101389.38;5112011;27;20040;-66
2022/03/13 01:21:23;;;;;;;15.75;10.00;;;;;;;9.80;53.91;101383.28;5110780;27;20036;-65
2022/03/13 01:24:18;;;;;;;15.27;9.85;;;;;;;9.79;54.10;101378.91;5112113;28;20501;-65
2022/03/13 01:26:53;;;;;;;14.07;9.73;;;;;;;9.76;54.09;101389.50;5108691;28;20133;-65
2022/03/13 01:29:20;;;;;;;14.23;9.48;;;;;;;9.74;54.36;101381.63;5113006;28;20050;-65
2022/03/13 01:31:49;;;;;;;15.57;9.77;;;;;;;9.72;54.07;101374.63;5111993;27;20775;-65
2022/03/13 01:34:51;;;;;;;14.63;9.13;;;;;;;9.69;54.61;101369.44;5112223;28;20066;-65
2022/03/13 01:37:33;;;;;;;16.58;9.55;;;;;;;9.67;54.65;101372.09;5101498;28;20082;-65
2022/03/13 01:40:10;;;;;;;14.60;9.10;;;;;;;9.62;54.74;101364.28;5112594;28;20036;-65
2022/03/13 01:42:40;;;;;;;13.43;8.65;;;;;;;9.59;55.12;101353.81;5110849;28;20802;-67
2022/03/13 01:45:14;;;;;;;11.75;7.63;;;;;;;9.53;55.23;101353.06;5110277;27;20047;-66
2022/03/13 01:47:44;;;;;;;15.05;8.30;;;;;;;9.48;55.28;101353.13;5101296;28;20047;-66
2022/03/13 01:50:14;;;;;;;12.05;8.55;;;;;;;9.43;55.43;101349.69;5111690;28;20614;-66
2022/03/13 01:52:48;;;;;;;14.23;8.38;;;;;;;9.42;55.98;101350.59;5110327;28;20036;-66
2022/03/13 01:55:16;;;;;;;11.95;7.90;;;;;;;9.40;55.76;101350.63;5111905;28;20040;-66
2022/03/13 01:57:47;;;;;;;12.65;6.97;;;;;;;9.38;55.91;101347.16;5111201;28;20101;-66
2022/03/13 02:00:17;;;;;;;12.52;7.95;;;;;;;9.39;56.08;101351.53;5104210;28;20036;-66
2022/03/13 02:02:47;;;;;;;11.30;7.45;;;;;;;9.40;56.13;101334.84;5101350;28;20045;-67
2022/03/13 02:05:34;;;;;;;12.57;7.40;;;;;;;9.44;56.32;101343.53;5106256;28;20123;-66
2022/03/13 02:08:20;;;;;;;12.25;7.38;;;;;;;9.47;56.27;101338.25;5100194;28;20040;-67
2022/03/13 02:10:48;;;;;;;12.50;7.25;;;;;;;9.48;56.26;101345.25;5091725;28;20067;-67
2022/03/13 02:13:19;;;;;;;13.05;7.40;;;;;;;9.49;56.39;101341.72;5104462;28;20036;-66
2022/03/13 02:15:47;;;;;;;10.50;6.90;;;;;;;9.48;56.35;101337.34;5108900;28;20559;-67
2022/03/13 02:18:14;;;;;;;10.15;7.15;;;;;;;9.49;56.33;101339.09;5109825;27;20051;-67
2022/03/13 02:20:44;;;;;;;13.23;7.28;;;;;;;9.47;56.64;101332.97;5111576;28;20044;-67
2022/03/13 02:23:27;;;;;;;12.18;7.28;;;;;;;9.47;56.52;101336.47;5110287;28;20063;-67
2022/03/13 02:26:00;;;;;;;11.38;7.45;;;;;;;9.46;56.28;101339.13;5112188;27;20060;-67
2022/03/13 02:28:32;;;;;;;11.80;7.88;;;;;;;9.43;56.39;101333.91;5112041;28;20040;-67
2022/03/13 02:31:16;;;;;;;15.32;8.25;;;;;;;9.39;56.49;101324.34;5115532;28;20040;-67
2022/03/13 02:33:43;;;;;;;14.90;9.05;;;;;;;9.34;56.48;101324.44;5114753;28;20136;-67
2022/03/13 02:36:43;;;;;;;15.75;10.00;;;;;;;9.25;57.11;101319.34;5115657;28;20130;-66
2022/03/13 02:39:12;;;;;;;14.98;9.82;;;;;;;9.15;57.00;101314.22;5098496;28;20789;-67
2022/03/13 02:41:43;;;;;;;18.15;10.43;;;;;;;9.09;56.99;101319.56;5113957;27;20037;-66
2022/03/13 02:44:17;;;;;;;19.70;11.10;;;;;;;9.02;57.14;101315.31;5113971;28;20098;-67
2022/03/13 02:47:04;;;;;;;17.02;10.43;;;;;;;8.95;57.40;101313.69;5114057;28;20043;-67
2022/03/13 02:49:33;;;;;;;19.27;11.10;;;;;;;8.89;57.09;101319.91;5113734;28;20046;-66
2022/03/13 02:52:05;;;;;;;15.70;11.52;;;;;;;8.83;56.89;101312.97;5113498;28;20044;-66
2022/03/13 02:54:33;;;;;;;18.70;12.27;;;;;;;8.79;56.86;101321.78;5102065;28;20571;-66
2022/03/13 02:57:01;;;;;;;21.70;12.80;;;;;;;8.72;56.67;101307.03;5112811;28;20506;-65
2022/03/13 02:59:29;;;;;;;19.58;12.20;;;;;;;8.66;56.69;101310.59;5114281;27;20526;-65
2022/03/13 03:01:58;;;;;;;21.88;12.45;;;;;;;8.61;56.58;101311.56;5113858;27;20047;-65
2022/03/13 03:04:25;;;;;;;21.17;12.20;;;;;;;8.57;56.64;101313.38;5115269;28;20075;-65
2022/03/13 03:06:59;;;;;;;20.15;12.05;;;;;;;8.52;56.58;101310.81;5114499;28;20048;-65
2022/03/13 03:09:32;;;;;;;19.70;12.32;;;;;;;8.45;56.76;101309.09;5113462;28;20725;-66
2022/03/13 03:12:04;;;;;;;19.70;12.05;;;;;;;8.42;56.79;101314.44;5113603;28;20522;-65
2022/03/13 03:14:34;;;;;;;20.85;12.55;;;;;;;8.35;56.73;101313.63;5113249;28;20233;-65
2022/03/13 03:17:03;;;;;;;17.98;11.55;;;;;;;8.28;56.69;101309.34;5113654;27;20044;-65
2022/03/13 03:19:30;;;;;;;22.25;12.70;;;;;;;8.22;56.87;101304.16;5113042;28;20040;-65
2022/03/13 03:21:58;;;;;;;20.33;12.30;;;;;;;8.16;57.21;101299.00;5112879;28;20092;-65
2022/03/13 03:24:25;;;;;;;20.45;12.30;;;;;;;8.11;57.11;101306.94;5113140;28;20044;-65
2022/03/13 03:26:53;;;;;;;17.90;11.75;;;;;;;8.08;57.41;101302.63;5109502;27;20060;-65
2022/03/13 03:29:25;;;;;;;18.48;11.82;;;;;;;8.06;57.27;101301.75;5112044;27;20036;-66
2022/03/13 03:31:52;;;;;;;21.80;11.93;;;;;;;8.08;57.24;101302.63;5105425;28;20041;-66
2022/03/13 03:34:22;;;;;;;18.67;12.68;;;;;;;8.09;57.07;101296.44;5113208;27;20032;-64
2022/03/13 03:37:00;;;;;;;21.95;12.20;;;;;;;8.11;57.04;101292.94;5110693;27;20048;-64
2022/03/13 03:39:31;;;;;;;17.70;11.65;;;;;;;8.14;57.02;101295.53;5113147;28;20056;-65
2022/03/13 03:42:00;;;;;;;16.63;11.45;;;;;;;8.16;56.61;101286.72;5111651;27;20040;-64
2022/03/13 03:44:27;;;;;;;17.88;11.55;;;;;;;8.17;56.50;101298.13;5112626;27;20050;-65
2022/03/13 03:46:55;;;;;;;17.00;10.88;;;;;;;8.21;56.20;101294.53;5112750;28;20138;-64
2022/03/13 03:49:23;;;;;;;21.05;12.07;;;;;;;8.21;55.89;101297.19;5104850;28;20048;-64
2022/03/13 03:51:51;;;;;;;19.35;10.90;;;;;;;8.23;55.67;101295.41;5109385;27;20052;-64
2022/03/13 03:54:19;;;;;;;18.73;10.75;;;;;;;8.25;55.04;101291.00;5113412;28;20161;-64
2022/03/13 03:56:46;;;;;;;15.77;10.15;;;;;;;8.28;55.05;101296.22;5111445;28;20067;-64
2022/03/13 03:59:13;;;;;;;21.55;11.15;;;;;;;8.32;54.87;101299.69;5112788;27;20036;-64
2022/03/13 04:01:43;;;;;;;18.27;11.25;;;;;;;8.35;54.70;101296.97;5111704;28;20078;-64
2022/03/13 04:04:17;;;;;;;15.93;10.35;;;;;;;8.38;54.15;101292.59;5109782;28;20048;-64
2022/03/13 04:06:44;;;;;;;15.20;9.95;;;;;;;8.42;54.24;101297.78;5115101;27;20189;-64
2022/03/13 04:09:12;;;;;;;16.73;10.82;;;;;;;8.44;53.72;101296.00;5113558;27;20036;-64
2022/03/13 04:11:40;;;;;;;14.57;9.52;;;;;;;8.45;53.33;101293.34;5114436;28;20047;-64
2022/03/13 04:14:11;;;;;;;18.27;10.50;;;;;;;8.46;53.20;101297.72;5113169;27;20055;-65
2022/03/13 04:16:38;;;;;;;15.35;9.52;;;;;;;8.49;53.14;101299.47;5114527;28;20040;-65
2022/03/13 04:19:06;;;;;;;14.70;9.25;;;;;;;8.50;52.56;101307.34;5112713;28;20050;-66
2022/03/13 04:21:34;;;;;;;15.18;9.95;;;;;;;8.51;52.80;101313.44;5112540;28;20051;-65
2022/03/13 04:24:01;;;;;;;16.02;10.40;;;;;;;8.53;52.92;101309.94;5111110;28;20477;-66
2022/03/13 04:26:28;;;;;;;13.18;9.45;;;;;;;8.57;52.76;101297.59;5112580;28;20060;-65
2022/03/13 04:28:55;;;;;;;16.85;9.90;;;;;;;8.57;51.95;101292.34;5112012;28;20064;-65
2022/03/13 04:31:24;;;;;;;14.25;9.50;;;;;;;8.55;51.66;101302.00;5113124;28;20040;-65
2022/03/13 04:33:52;;;;;;;13.73;8.88;;;;;;;8.57;51.86;101301.97;5112637;27;20071;-64
2022/03/13 04:36:23;;;;;;;14.82;8.95;;;;;;;8.58;50.75;101296.72;5112563;27;20052;-64
2022/03/13 04:38:50;;;;;;;15.65;8.98;;;;;;;8.57;50.69;101283.56;5104671;27;20044;-64
2022/03/13 04:41:18;;;;;;;15.80;9.07;;;;;;;8.55;50.41;101284.47;5112683;28;20126;-64
2022/03/13 04:43:47;;;;;;;15.20;9.75;;;;;;;8.53;50.02;101280.13;5111410;28;20117;-64
2022/03/13 04:46:15;;;;;;;15.02;9.20;;;;;;;8.51;49.86;101284.53;5109356;28;20033;-66
2022/03/13 04:48:43;;;;;;;14.75;8.65;;;;;;;8.51;49.87;101295.03;5111923;27;20411;-66
2022/03/13 04:51:10;;;;;;;15.00;9.10;;;;;;;8.48;49.66;101287.22;5109623;28;20032;-66
2022/03/13 04:53:38;;;;;;;14.38;9.13;;;;;;;8.48;49.64;101288.09;5106651;28;20044;-66
2022/03/13 04:56:05;;;;;;;13.95;8.68;;;;;;;8.45;49.64;101288.09;5106361;27;20082;-67
2022/03/13 04:58:32;;;;;;;14.38;8.90;;;;;;;8.43;49.24;101295.16;5112162;28;20050;-67
2022/03/13 05:00:59;;;;;;;12.65;8.48;;;;;;;8.39;48.92;101283.78;5111221;27;20070;-66
2022/03/13 05:03:27;;;;;;;15.68;9.30;;;;;;;8.38;49.12;101283.81;5112075;27;20545;-66
2022/03/13 05:05:55;;;;;;;13.65;8.30;;;;;;;8.37;48.45;101284.69;5108532;27;20472;-66
2022/03/13 05:08:23;;;;;;;14.15;8.35;;;;;;;8.33;48.11;101283.88;5111591;27;20454;-66
2022/03/13 05:10:51;;;;;;;12.35;8.20;;;;;;;8.32;48.12;101279.50;5111438;27;20067;-66
2022/03/13 05:13:19;;;;;;;13.60;8.65;;;;;;;8.33;48.52;101285.66;5111806;27;20502;-66
2022/03/13 05:15:46;;;;;;;12.07;7.63;;;;;;;8.33;48.72;101283.88;5110743;27;20137;-66
2022/03/13 05:18:14;;;;;;;12.68;8.10;;;;;;;8.33;48.39;101273.38;5109783;27;20123;-66
2022/03/13 05:20:42;;;;;;;14.63;8.35;;;;;;;8.36;48.42;101277.72;5112315;28;20051;-66
2022/03/13 05:23:09;;;;;;;15.10;8.18;;;;;;;8.35;48.30;101281.22;5103005;27;20043;-66
2022/03/13 05:25:38;;;;;;;14.18;7.85;;;;;;;8.36;48.15;101283.84;5109852;28;20062;-66
2022/03/13 05:28:08;;;;;;;13.55;8.20;;;;;;;8.36;47.73;101281.22;5110347;28;20448;-66
2022/03/13 05:30:37;;;;;;;16.10;8.52;;;;;;;8.37;47.56;101280.34;5111631;28;20033;-66
2022/03/13 05:33:06;;;;;;;14.23;8.43;;;;;;;8.38;47.72;101283.81;5111752;28;20512;-65
2022/03/13 05:35:35;;;;;;;14.27;8.20;;;;;;;8.38;47.83;101287.34;5111413;27;20046;-64
2022/03/13 05:38:03;;;;;;;14.30;8.23;;;;;;;8.37;48.34;101280.34;5110463;27;20362;-65
2022/03/13 05:40:35;;;;;;;13.75;8.00;;;;;;;8.34;48.70;101290.03;5104596;28;20039;-65
2022/03/13 05:43:04;;;;;;;14.10;8.30;;;;;;;8.31;48.99;101293.53;5102519;27;20673;-65
2022/03/13 05:45:36;;;;;;;14.13;8.55;;;;;;;8.27;49.79;101299.75;5110521;28;20920;-65
2022/03/13 05:48:10;;;;;;;13.38;7.93;;;;;;;8.24;49.68;101297.16;5106794;27;20044;-65
2022/03/13 05:50:37;;;;;;;15.15;8.48;;;;;;;8.19;49.96;101302.47;5107727;28;20046;-66
2022/03/13 05:53:05;;;;;;;13.38;7.97;;;;;;;8.16;50.23;101302.50;5108787;27;20043;-66
2022/03/13 05:55:33;;;;;;;15.70;8.90;;;;;;;8.15;50.08;101302.53;5107258;27;20036;-66
2022/03/13 05:58:01;;;;;;;12.90;8.32;;;;;;;8.13;49.57;101313.06;5105565;27;20040;-66
2022/03/13 06:00:32;;;;;;;12.18;8.02;;;;;;;8.12;49.41;101305.19;5109168;28;20533;-66
2022/03/13 06:03:01;;;;;;;12.20;8.07;;;;;;;8.11;49.22;101306.94;5102111;27;20091;-67
2022/03/13 06:05:31;;;;;;;13.80;8.00;;;;;;;8.09;49.18;101306.09;5107835;27;20048;-67
2022/03/13 06:07:59;;;;;;;13.27;8.18;;;;;;;8.08;49.27;101292.09;5106065;28;20036;-67
2022/03/13 06:10:26;;;;;;;13.50;7.72;;;;;;;8.07;49.03;101305.22;5105410;27;20453;-68
2022/03/13 06:12:54;;;;;;;11.75;7.53;;;;;;;8.06;49.16;101307.00;5105073;27;20044;-66
2022/03/13 06:15:22;;;;;;;14.35;8.35;;;;;;;8.08;48.99;101306.97;5108302;27;20501;-65
2022/03/13 06:17:51;;;;;;;12.90;7.55;;;;;;;8.07;48.92;101313.13;5104154;28;20036;-65
2022/03/13 06:20:18;;;;;;;14.60;7.50;;;;;;;8.09;48.91;101319.22;5105759;28;20722;-64
2022/03/13 06:22:48;;;;;;;13.15;8.13;;;;;;;8.11;48.54;101319.19;5105177;28;20563;-65
2022/03/13 06:25:17;;;;;;;13.07;8.25;;;;;;;8.13;48.53;101317.41;5104361;27;20109;-65
2022/03/13 06:27:47;;;;;;;14.93;7.72;;;;;;;8.16;48.15;101317.38;5103615;27;20044;-65
2022/03/13 06:30:16;;;;;;;12.80;7.93;;;;;;;8.18;48.08;101320.88;5103358;27;20116;-64
2022/03/13 06:32:50;;;;;;;11.65;7.80;;;;;;;8.21;47.96;101311.19;5104531;28;20050;-65
2022/03/13 06:35:23;;;;;;;11.43;8.03;;;;;;;8.23;47.97;101311.16;5105883;27;20110;-66
2022/03/13 06:37:52;;;;;;;11.65;7.70;;;;;;;8.24;47.74;101303.25;5103492;27;20063;-65
2022/03/13 06:40:22;;;;;;;16.02;8.02;;;;;;;8.24;47.42;101311.13;5106549;28;20067;-66
2022/03/13 06:42:53;;;;;;;13.45;7.75;;;;;;;8.27;47.45;101312.88;5107677;27;20140;-65
2022/03/13 06:45:22;;;;;;;14.05;7.90;;;;;;;8.25;47.47;101314.66;5101058;27;20143;-65
2022/03/13 06:47:50;;;;;;;11.23;7.72;;;;;;;8.26;47.23;101303.25;5104093;28;20521;-67
2022/03/13 06:50:22;;;;;;;14.43;8.30;;;;;;;8.28;46.88;101296.22;5105280;28;20040;-66
2022/03/13 06:52:53;;;;;;;13.43;7.97;;;;;;;8.28;46.80;101290.09;5087084;28;20046;-67
2022/03/13 06:55:22;;;;;;;11.25;7.25;;;;;;;8.30;47.10;101301.44;5107752;28;20644;-69
2022/03/13 06:57:50;;;;;;;12.85;7.97;;;;;;;8.29;46.69;101292.69;5113980;28;20044;-67
2022/03/13 07:00:19;;;;;;;14.38;8.25;;;;;;;8.30;46.47;101299.69;5112502;28;20039;-66
2022/03/13 07:02:49;;;;;;;11.98;7.90;;;;;;;8.29;46.54;101304.97;5113289;27;20090;-65
2022/03/13 07:05:22;;;;;;;10.85;7.45;;;;;;;8.29;47.62;101310.22;5112194;27;20051;-64
2022/03/13 07:07:54;;;;;;;15.25;8.43;;;;;;;8.34;47.03;101308.41;5111657;28;20040;-64
2022/03/13 07:10:24;;;;;;;13.73;8.02;;;;;;;8.35;46.92;101316.25;5109636;28;20091;-65
2022/03/13 07:12:52;;;;;;;12.05;7.35;;;;;;;8.34;46.53;101314.53;5101092;28;20044;-65
2022/03/13 07:15:22;;;;;;;11.50;7.53;;;;;;;8.37;47.36;101310.97;5103721;28;21070;-66
2022/03/13 07:17:49;;;;;;;11.93;7.70;;;;;;;8.47;47.24;101317.00;5104607;28;20040;-65
2022/03/13 07:20:16;;;;;;;12.77;7.63;;;;;;;8.59;47.44;101316.84;5107963;27;20040;-66
2022/03/13 07:22:45;;;;;;;13.95;8.30;;;;;;;8.64;46.03;101315.00;5101831;28;20040;-66
2022/03/13 07:25:14;;;;;;;10.50;7.28;;;;;;;8.67;45.20;101307.09;5093080;28;20605;-64
2022/03/13 07:27:42;;;;;;;12.73;8.00;;;;;;;8.70;44.92;101314.06;5104436;28;20128;-66
2022/03/13 07:30:12;;;;;;;16.80;8.65;;;;;;;8.72;45.04;101319.28;5108716;28;20045;-65
2022/03/13 07:32:43;;;;;;;13.60;8.65;;;;;;;8.77;44.88;101306.94;5103142;28;20089;-65
2022/03/13 07:35:12;;;;;;;13.43;7.55;;;;;;;8.84;44.50;101309.47;5105561;28;20524;-65
2022/03/13 07:37:43;;;;;;;12.77;7.72;;;;;;;8.94;43.76;101317.22;5104204;28;20037;-65
2022/03/13 07:40:11;;;;;;;12.63;8.30;;;;;;;9.04;43.61;101310.03;5105886;27;20040;-65
2022/03/13 07:42:38;;;;;;;12.63;8.52;;;;;;;9.10;43.64;101313.44;5108717;27;20091;-66
2022/03/13 07:45:10;;;;;;;12.07;7.88;;;;;;;9.15;43.23;101306.34;5105101;28;20044;-65
2022/03/13 07:47:37;;;;;;;13.75;7.90;;;;;;;9.24;43.65;101310.56;5107803;28;20174;-65
2022/03/13 07:50:05;;;;;;;14.40;8.00;;;;;;;9.31;43.52;101309.53;5104985;28;20036;-65
2022/03/13 07:52:33;;;;;;;12.15;7.82;;;;;;;9.45;43.33;101297.91;5101893;28;20906;-65
2022/03/13 07:55:00;;;;;;;11.45;7.88;;;;;;;9.67;42.79;101293.09;5098295;28;20044;-66
2022/03/13 07:57:30;;;;;;;16.40;8.40;;;;;;;9.89;42.04;101306.75;5102692;28;20059;-65
2022/03/13 07:59:58;;;;;;;12.25;7.93;;;;;;;10.05;41.24;101301.13;5103868;28;20238;-65
2022/03/13 08:02:26;;;;;;;15.10;7.80;;;;;;;10.09;40.99;101290.50;5104942;27;20044;-65
2022/03/13 08:04:53;;;;;;;13.82;8.50;;;;;;;10.14;40.70;101298.31;5102878;27;20119;-66
2022/03/13 08:07:20;;;;;;;14.20;7.68;;;;;;;10.22;40.84;101295.53;5106379;28;20040;-69
2022/03/13 08:09:49;;;;;;;12.02;8.18;;;;;;;10.27;39.79;101293.66;5101492;28;20495;-69
2022/03/13 08:12:16;;;;;;;12.60;7.35;;;;;;;10.29;39.86;101296.25;5106448;28;20036;-68
2022/03/13 08:14:43;;;;;;;17.15;7.95;;;;;;;10.33;40.40;101303.19;5105687;27;20062;-69
2022/03/13 08:17:10;;;;;;;13.35;8.07;;;;;;;10.44;40.31;101300.34;5111333;28;20378;-69
2022/03/13 08:19:38;;;;;;;14.27;8.25;;;;;;;10.48;40.32;101296.75;5099433;28;20045;-69
2022/03/13 08:22:05;;;;;;;14.65;8.57;;;;;;;10.49;40.74;101299.34;5101243;28;20047;-69
2022/03/13 08:24:32;;;;;;;13.00;8.52;;;;;;;10.47;40.47;101298.50;5099249;28;20421;-69
2022/03/13 08:26:59;;;;;;;12.55;8.55;;;;;;;10.40;40.54;101296.94;5097889;28;20071;-69
2022/03/13 08:29:30;;;;;;;14.52;8.18;;;;;;;10.30;40.10;101300.63;5106101;28;20086;-69
2022/03/13 08:31:58;;;;;;;14.63;8.55;;;;;;;10.24;40.83;101299.00;5107326;28;20036;-69
2022/03/13 08:34:28;;;;;;;12.38;7.97;;;;;;;10.20;40.72;101292.94;5100662;28;20565;-69
2022/03/13 08:37:01;;;;;;;14.98;8.15;;;;;;;10.21;40.60;101299.06;5108036;27;20048;-69
2022/03/13 08:39:31;;;;;;;14.13;8.15;;;;;;;10.23;40.42;101292.00;5110584;28;20056;-69
2022/03/13 08:41:58;;;;;;;12.38;8.00;;;;;;;10.26;40.17;101298.06;5103573;28;20067;-70
2022/03/13 08:44:25;;;;;;;12.55;7.70;;;;;;;10.33;40.33;101300.53;5107030;28;20047;-68
2022/03/13 08:46:52;;;;;;;13.00;7.57;;;;;;;10.46;40.37;101301.19;5103207;28;20052;-66
2022/03/13 08:49:19;;;;;;;14.95;8.90;;;;;;;10.63;40.51;101295.53;5106325;27;20037;-66
2022/03/13 08:51:48;;;;;;;14.07;8.57;;;;;;;10.81;40.19;101292.47;5098156;27;20101;-66
2022/03/13 08:54:17;;;;;;;14.18;7.72;;;;;;;11.00;38.87;101286.72;5110386;28;20036;-67
2022/03/13 08:56:46;;;;;;;14.68;8.23;;;;;;;11.10;39.03;101285.59;5100041;27;20044;-66
2022/03/13 08:59:15;;;;;;;12.23;7.57;;;;;;;11.22;38.31;101284.41;5107063;28;20067;-67
2022/03/13 09:01:45;;;;;;;14.52;8.45;;;;;;;11.34;38.38;101280.59;5103320;28;20039;-66
2022/03/13 09:04:14;;;;;;;15.45;8.55;;;;;;;11.46;38.45;101277.59;5104377;27;20044;-66
2022/03/13 09:06:43;;;;;;;12.70;8.27;;;;;;;11.61;38.28;101271.03;5110570;28;20089;-66
2022/03/13 09:09:10;;;;;;;12.38;7.97;;;;;;;11.79;38.43;101277.59;5110890;28;20351;-67
2022/03/13 09:11:38;;;;;;;17.10;9.02;;;;;;;11.93;37.26;101276.34;5110234;28;20047;-66
2022/03/13 09:14:06;;;;;;;13.95;9.05;;;;;;;12.00;37.55;101280.56;5105034;28;20531;-66
2022/03/13 09:16:38;;;;;;;13.18;8.57;;;;;;;12.08;37.19;101278.53;5107565;27;20048;-66
2022/03/13 09:19:08;;;;;;;14.65;8.55;;;;;;;12.10;36.95;101275.88;5102498;28;20044;-66
2022/03/13 09:21:38;;;;;;;13.45;9.13;;;;;;;12.08;37.26;101278.53;5104134;28;20035;-66
2022/03/13 09:24:08;;;;;;;13.48;8.68;;;;;;;12.13;37.13;101282.84;5102168;28;20044;-67
2022/03/13 09:26:42;;;;;;;14.57;8.82;;;;;;;12.20;36.85;101281.75;5099450;28;20885;-66
2022/03/13 09:29:10;;;;;;;16.98;8.68;;;;;;;12.32;36.29;101270.81;5099442;28;20032;-67
2022/03/13 09:31:37;;;;;;;15.18;9.10;;;;;;;12.46;36.58;101275.66;5103408;28;20036;-68
2022/03/13 09:34:04;;;;;;;13.93;8.35;;;;;;;12.57;35.16;101270.91;5105100;27;20851;-68
2022/03/13 09:36:36;;;;;;;12.93;8.60;;;;;;;12.50;35.81;101271.13;5099406;27;20052;-66
2022/03/13 09:39:07;;;;;;;13.32;8.90;;;;;;;12.61;35.75;101269.00;5100602;28;20070;-67
2022/03/13 09:41:38;;;;;;;14.40;9.52;;;;;;;12.78;36.13;101262.31;5107685;28;20036;-66
2022/03/13 09:44:07;;;;;;;16.70;10.43;;;;;;;12.88;35.90;101259.31;5103728;27;20040;-65
2022/03/13 09:46:38;;;;;;;15.93;9.02;;;;;;;12.99;35.85;101255.44;5106554;28;20047;-67
2022/03/13 09:49:06;;;;;;;13.38;9.02;;;;;;;13.17;36.17;101253.97;5101786;28;20072;-65
2022/03/13 09:51:33;;;;;;;20.75;13.35;;;;;;;13.44;36.17;101257.44;5106669;27;20082;-66
2022/03/13 09:54:02;;;;;;;15.25;9.93;;;;;;;13.72;36.14;101253.81;5096702;28;20440;-66
2022/03/13 09:56:29;;;;;;;15.52;9.55;;;;;;;13.99;35.75;101253.69;5097234;28;20075;-67
2022/03/13 09:58:56;;;;;;;17.02;9.88;;;;;;;14.20;34.90;101253.78;5103892;28;20726;-67
2022/03/13 10:01:23;;;;;;;14.30;9.20;;;;;;;14.24;35.13;101264.19;5107131;28;20041;-65
2022/03/13 10:03:54;;;;;;;14.98;9.65;;;;;;;14.42;34.26;101249.34;5098766;27;20068;-67
2022/03/13 10:06:21;;;;;;;13.35;8.52;;;;;;;14.53;34.44;101253.38;5106281;27;20036;-66
2022/03/13 10:08:48;;;;;;;16.50;9.00;;;;;;;14.46;33.68;101255.41;5107922;27;20462;-66
2022/03/13 10:11:16;;;;;;;23.02;9.57;;;;;;;14.33;34.30;101246.19;5101417;27;20041;-67
2022/03/13 10:13:46;;;;;;;13.38;9.13;;;;;;;14.24;34.68;101245.63;5102635;28;20071;-66
2022/03/13 10:16:34;;;;;;;14.35;9.52;;;;;;;14.44;35.15;101241.31;5102936;27;20037;-66
2022/03/13 10:19:16;;;;;;;16.45;10.13;;;;;;;14.55;34.38;101248.88;5103053;28;20054;-65
2022/03/13 10:22:05;;;;;;;15.57;10.35;;;;;;;14.49;34.80;101243.78;5097110;28;20056;-66
2022/03/13 10:24:46;;;;;;;14.27;9.20;;;;;;;14.63;34.44;101241.47;5100235;28;20044;-65
2022/03/13 10:27:17;;;;;;;15.18;10.00;;;;;;;14.85;34.87;101235.28;5094939;28;20102;-65
2022/03/13 10:29:46;;;;;;;19.27;10.27;;;;;;;15.13;35.29;101244.72;5094641;28;20524;-66
2022/03/13 10:32:15;;;;;;;15.15;10.00;;;;;;;15.34;35.09;101235.84;5101445;28;20124;-65
2022/03/13 10:35:01;;;;;;;14.48;11.07;;;;;;;15.50;34.59;101241.34;5098129;28;20044;-67
2022/03/13 10:37:44;;;;;;;18.58;12.48;;;;;;;15.71;34.59;101229.78;5094727;28;20504;-66
2022/03/13 10:40:23;;;;;;;17.25;10.68;;;;;;;15.89;34.76;101220.97;5101685;28;20068;-66
2022/03/13 10:42:54;;;;;;;16.25;10.80;;;;;;;16.08;35.08;101234.28;5106224;28;20032;-68
2022/03/13 10:45:36;;;;;;;19.35;12.25;;;;;;;16.23;34.82;101230.03;5107362;27;20044;-66
2022/03/13 10:48:21;;;;;;;13.80;10.75;;;;;;;16.37;35.22;101231.19;5109939;27;20036;-67
2022/03/13 10:50:52;;;;;;;13.13;9.30;;;;;;;16.51;34.94;101227.84;5110646;27;20565;-70
2022/03/13 10:53:22;;;;;;;13.50;8.73;;;;;;;16.51;34.61;101226.03;5110907;28;20170;-69
2022/03/13 10:56:10;;;;;;;16.73;12.55;;;;;;;16.57;34.74;101224.88;5111601;27;20029;-70
2022/03/13 10:58:48;;;;;;;15.10;11.57;;;;;;;16.63;34.63;101215.72;5108500;28;20044;-70
2022/03/13 11:01:20;;;;;;;17.42;13.75;;;;;;;16.69;34.75;101216.28;5110532;27;20036;-69
2022/03/13 11:04:02;;;;;;;16.85;11.25;;;;;;;16.70;34.72;101219.78;5110615;28;20032;-71
2022/03/13 11:06:29;;;;;;;17.95;12.75;;;;;;;16.75;34.87;101218.63;5111216;27;20050;-70
2022/03/13 11:08:57;;;;;;;18.67;13.30;;;;;;;16.86;35.03;101218.09;5111472;27;20059;-69
2022/03/13 11:11:28;;;;;;;15.77;10.32;;;;;;;16.98;35.37;101213.97;5110074;27;20608;-70
2022/03/13 11:13:59;;;;;;;15.55;10.23;;;;;;;17.07;34.59;101207.31;5107116;28;20044;-69
2022/03/13 11:16:30;;;;;;;14.55;9.40;;;;;;;17.16;34.57;101197.97;5113781;28;20115;-69
2022/03/13 11:19:05;;;;;;;13.50;9.73;;;;;;;17.25;34.01;101207.28;5113031;28;20047;-69
2022/03/13 11:21:33;;;;;;;16.05;10.50;;;;;;;17.34;34.30;101204.13;5113269;27;20078;-70
2022/03/13 11:24:03;;;;;;;11.90;8.90;;;;;;;17.43;34.17;101205.47;5106958;28;20210;-68
2022/03/13 11:26:31;;;;;;;14.07;9.07;;;;;;;17.47;33.84;101202.53;5107246;28;20052;-68
2022/03/13 11:28:59;;;;;;;12.48;8.13;;;;;;;17.55;33.96;101199.44;5107581;27;20040;-68
2022/03/13 11:31:29;;;;;;;11.63;8.57;;;;;;;17.59;34.36;101193.00;5101734;28;20051;-69
2022/03/13 11:34:17;;;;;;;11.98;9.02;;;;;;;17.62;33.96;101186.66;5109082;28;20588;-69